Time;durP1;ratioP1;P1;durP2;ratioP2;P2;SDS_P1;SDS_P2;PMS_P1;PMS_P2;Temp;Humidity;BMP_temperature;BMP_pressure;BME280_temperature;BME280_humidity;BME280_pressure;Samples;Min_cycle;Max_cycle;Signal;HPM_P1;HPM_P2
2024/01/14 00:01:56;;;;;;;34.90;14.82;;;;;;;-0.50;78.18;97713.19;5301922;27;20061;-84
2024/01/14 00:04:24;;;;;;;38.20;15.23;;;;;;;-0.40;77.55;97715.66;5300651;27;20105;-85
2024/01/14 00:06:53;;;;;;;39.42;15.90;;;;;;;-0.43;76.87;97702.97;5301747;27;20057;-84
2024/01/14 00:09:22;;;;;;;36.17;14.70;;;;;;;-0.77;77.19;97707.34;5302163;27;20065;-85
2024/01/14 00:11:50;;;;;;;36.17;14.48;;;;;;;-0.27;76.09;97708.84;5301870;27;20109;-84
2024/01/14 00:14:19;;;;;;;32.38;12.70;;;;;;;-0.56;76.97;97701.38;5302304;27;20048;-85
2024/01/14 00:16:47;;;;;;;37.53;14.80;;;;;;;-0.97;78.45;97692.22;5302352;27;20049;-85
2024/01/14 00:19:16;;;;;;;34.83;13.60;;;;;;;-0.83;77.47;97698.94;5301762;27;20087;-85
2024/01/14 00:21:45;;;;;;;37.67;14.15;;;;;;;-0.90;76.79;97691.34;5302208;27;20073;-85
2024/01/14 00:24:13;;;;;;;31.50;12.48;;;;;;;-1.23;78.74;97691.44;5302283;27;20057;-85
2024/01/14 00:26:41;;;;;;;39.00;12.77;;;;;;;-1.11;78.15;97696.47;5301997;27;20380;-85
2024/01/14 00:29:09;;;;;;;37.30;13.20;;;;;;;-1.09;78.16;97699.84;5302487;27;20065;-85
2024/01/14 00:31:37;;;;;;;32.40;12.85;;;;;;;-0.98;78.06;97692.22;5302389;27;20068;-85
2024/01/14 00:34:06;;;;;;;31.62;12.75;;;;;;;-0.91;77.35;97694.75;5302069;27;20398;-85
2024/01/14 00:36:39;;;;;;;33.25;13.00;;;;;;;-1.13;80.00;97689.75;5302874;27;20366;-85
2024/01/14 00:39:08;;;;;;;37.10;12.15;;;;;;;-0.62;77.53;97701.41;5300815;27;20088;-85
2024/01/14 00:41:36;;;;;;;36.38;12.15;;;;;;;-0.43;76.85;97697.06;5301919;27;20067;-85
2024/01/14 00:44:04;;;;;;;31.92;12.02;;;;;;;-0.68;76.74;97691.28;5302286;27;20073;-85
2024/01/14 00:46:34;;;;;;;32.20;11.75;;;;;;;-0.54;76.55;97692.06;5303146;27;20060;-85
2024/01/14 00:49:01;;;;;;;31.92;12.23;;;;;;;-0.18;74.69;97696.12;5301921;27;20072;-85
2024/01/14 00:51:29;;;;;;;32.20;11.65;;;;;;;-0.16;74.54;97691.87;5302314;27;20071;-85
2024/01/14 00:53:57;;;;;;;32.95;11.38;;;;;;;-0.24;74.40;97683.47;5301953;27;20068;-85
2024/01/14 00:56:25;;;;;;;32.22;11.90;;;;;;;-0.04;74.47;97684.19;5302450;27;20045;-85
2024/01/14 00:58:55;;;;;;;31.00;10.63;;;;;;;-0.38;74.79;97675.94;5302379;27;20070;-85
2024/01/14 01:01:24;;;;;;;28.55;10.77;;;;;;;0.05;73.54;97674.84;5301911;27;20347;-84
2024/01/14 01:03:52;;;;;;;29.92;10.85;;;;;;;-0.17;74.29;97672.44;5302742;27;20128;-85
2024/01/14 01:06:21;;;;;;;27.23;10.25;;;;;;;-0.15;73.96;97680.03;5303375;27;20087;-85
2024/01/14 01:08:49;;;;;;;28.48;10.63;;;;;;;-0.03;73.46;97665.56;5302831;27;20131;-85
2024/01/14 01:11:17;;;;;;;28.50;10.38;;;;;;;-0.87;76.19;97667.69;5303441;27;20119;-85
2024/01/14 01:13:45;;;;;;;26.40;10.15;;;;;;;-0.15;73.85;97662.28;5303173;27;20069;-85
2024/01/14 01:16:13;;;;;;;23.65;8.65;;;;;;;-0.64;76.20;97650.75;5303184;27;20061;-85
2024/01/14 01:18:42;;;;;;;25.05;8.90;;;;;;;-0.90;76.37;97648.31;5303061;27;20069;-85
2024/01/14 01:21:18;;;;;;;25.00;9.13;;;;;;;-0.67;76.01;97644.81;5303179;27;20145;-84
2024/01/14 01:23:45;;;;;;;23.33;8.48;;;;;;;-0.46;74.76;97638.81;5303026;27;20061;-85
2024/01/14 01:26:14;;;;;;;26.90;9.32;;;;;;;-0.26;73.76;97648.84;5302437;27;20491;-85
2024/01/14 01:28:43;;;;;;;22.55;8.25;;;;;;;-0.62;74.86;97643.97;5303290;27;20109;-85
2024/01/14 01:31:11;;;;;;;24.80;8.70;;;;;;;-0.10;72.55;97637.75;5302648;27;20094;-85
2024/01/14 01:33:42;;;;;;;27.17;8.70;;;;;;;-0.32;72.76;97637.91;5301614;27;20128;-85
2024/01/14 01:36:12;;;;;;;23.33;8.68;;;;;;;0.37;70.26;97627.22;5302729;27;20400;-84
2024/01/14 01:38:40;;;;;;;26.80;8.85;;;;;;;0.07;71.29;97643.53;5302820;27;20403;-85
2024/01/14 01:41:10;;;;;;;28.33;9.38;;;;;;;0.04;71.13;97625.81;5302874;27;20072;-85
2024/01/14 01:43:38;;;;;;;23.83;9.85;;;;;;;-0.20;71.78;97613.31;5302358;27;20076;-84
2024/01/14 01:46:06;;;;;;;27.33;9.50;;;;;;;0.04;70.64;97609.75;5303225;27;20501;-85
2024/01/14 01:48:35;;;;;;;25.42;9.95;;;;;;;0.57;68.30;97607.56;5301462;27;20431;-85
2024/01/14 01:51:04;;;;;;;26.67;9.73;;;;;;;0.47;67.77;97597.50;5302342;27;20064;-85
2024/01/14 01:53:31;;;;;;;26.62;9.25;;;;;;;0.22;68.44;97594.38;5302871;27;20100;-85
2024/01/14 01:55:59;;;;;;;26.70;9.13;;;;;;;0.36;68.96;97582.38;5302498;27;20057;-84
2024/01/14 01:58:27;;;;;;;23.42;8.43;;;;;;;0.86;66.26;97589.47;5300445;27;20087;-85
2024/01/14 02:00:55;;;;;;;26.80;9.07;;;;;;;0.96;66.02;97571.56;5302538;27;20087;-85
2024/01/14 02:03:25;;;;;;;28.05;9.77;;;;;;;1.00;64.69;97568.13;5302507;27;20754;-85
2024/01/14 02:05:54;;;;;;;27.87;9.52;;;;;;;0.62;65.99;97566.88;5302022;27;20053;-85
2024/01/14 02:08:23;;;;;;;25.75;9.32;;;;;;;0.75;65.69;97568.44;5301534;27;20069;-85
2024/01/14 02:10:53;;;;;;;26.60;9.82;;;;;;;1.04;64.79;97574.84;5302565;27;20053;-85
2024/01/14 02:13:21;;;;;;;24.58;9.35;;;;;;;0.47;66.27;97570.44;5301140;27;20060;-85
2024/01/14 02:15:51;;;;;;;25.75;9.38;;;;;;;0.63;65.76;97580.41;5302585;27;20189;-85
2024/01/14 02:18:21;;;;;;;27.42;9.48;;;;;;;0.78;65.33;97581.09;5302335;27;20065;-85
2024/01/14 02:20:51;;;;;;;29.30;10.13;;;;;;;0.67;65.48;97585.44;5302653;27;20112;-84
2024/01/14 02:23:21;;;;;;;27.30;8.23;;;;;;;0.35;66.89;97592.56;5302607;27;20068;-84
2024/01/14 02:25:49;;;;;;;28.12;9.65;;;;;;;0.37;66.65;97585.75;5301983;27;20073;-85
2024/01/14 02:28:20;;;;;;;26.65;9.82;;;;;;;0.53;66.43;97583.06;5301453;27;20073;-84
2024/01/14 02:30:48;;;;;;;28.75;9.95;;;;;;;0.24;67.19;97577.44;5301158;27;20061;-85
2024/01/14 02:33:16;;;;;;;28.12;9.55;;;;;;;0.35;67.56;97573.09;5300765;27;20436;-85
2024/01/14 02:35:45;;;;;;;27.02;10.05;;;;;;;0.13;68.28;97564.00;5302361;27;20056;-84
2024/01/14 02:38:12;;;;;;;23.95;9.25;;;;;;;0.52;67.11;97567.81;5302824;27;20140;-85
2024/01/14 02:40:40;;;;;;;26.67;9.93;;;;;;;0.52;66.94;97576.28;5302003;27;20053;-85
2024/01/14 02:43:08;;;;;;;30.98;10.02;;;;;;;0.92;65.41;97575.00;5302412;27;20056;-85
2024/01/14 02:45:37;;;;;;;27.20;8.95;;;;;;;0.82;65.96;97576.81;5302584;27;20063;-85
2024/01/14 02:48:06;;;;;;;31.42;9.23;;;;;;;1.00;64.39;97571.50;5302223;27;20077;-85
2024/01/14 02:50:36;;;;;;;27.73;9.63;;;;;;;0.69;65.48;97563.41;5302413;27;20380;-85
2024/01/14 02:53:05;;;;;;;28.65;9.70;;;;;;;0.84;65.12;97564.94;5301944;27;20418;-84
2024/01/14 02:55:36;;;;;;;23.85;8.65;;;;;;;0.65;64.25;97559.25;5302439;27;20127;-84
2024/01/14 02:58:03;;;;;;;28.27;10.05;;;;;;;0.65;64.96;97556.69;5302124;27;20062;-85
2024/01/14 03:00:32;;;;;;;29.10;9.50;;;;;;;0.39;65.68;97553.59;5301974;27;20137;-84
2024/01/14 03:03:00;;;;;;;23.52;9.50;;;;;;;0.47;66.05;97547.59;5302239;27;20115;-85
2024/01/14 03:05:29;;;;;;;28.12;9.98;;;;;;;0.82;65.21;97549.72;5302580;27;20107;-85
2024/01/14 03:07:57;;;;;;;27.48;9.95;;;;;;;0.69;65.61;97552.41;5302000;27;20065;-85
2024/01/14 03:10:26;;;;;;;26.37;9.57;;;;;;;0.76;65.86;97549.81;5302151;27;20073;-84
2024/01/14 03:12:54;;;;;;;25.17;9.20;;;;;;;0.74;65.72;97553.19;5302235;27;20068;-85
2024/01/14 03:15:22;;;;;;;25.58;9.65;;;;;;;1.30;63.76;97561.81;5302509;27;20060;-84
2024/01/14 03:17:50;;;;;;;26.23;9.45;;;;;;;1.11;63.37;97549.34;5302388;27;20073;-85
2024/01/14 03:20:17;;;;;;;26.42;9.48;;;;;;;0.64;64.77;97549.94;5302371;27;20391;-84
2024/01/14 03:22:46;;;;;;;25.67;9.57;;;;;;;0.71;64.95;97540.53;5301779;27;20053;-85
2024/01/14 03:25:14;;;;;;;26.10;9.25;;;;;;;0.58;66.54;97535.59;5302275;27;20053;-84
2024/01/14 03:27:44;;;;;;;26.37;8.60;;;;;;;0.77;66.03;97543.84;5302233;27;20068;-84
2024/01/14 03:30:11;;;;;;;26.37;10.07;;;;;;;0.29;67.47;97537.63;5301502;27;20112;-84
2024/01/14 03:32:40;;;;;;;27.95;9.45;;;;;;;-0.20;69.85;97538.09;5302356;27;20468;-85
2024/01/14 03:35:08;;;;;;;31.48;10.15;;;;;;;-0.46;71.27;97533.19;5302154;27;20067;-83
2024/01/14 03:37:36;;;;;;;27.35;10.27;;;;;;;-0.38;71.81;97539.06;5302064;27;20061;-84
2024/01/14 03:40:06;;;;;;;27.87;10.13;;;;;;;-0.54;72.35;97529.88;5300787;27;20072;-84
2024/01/14 03:42:34;;;;;;;30.75;10.27;;;;;;;-0.50;72.83;97528.19;5301980;27;20110;-84
2024/01/14 03:45:03;;;;;;;28.80;10.35;;;;;;;-0.29;72.12;97530.53;5302447;27;20065;-84
2024/01/14 03:47:32;;;;;;;28.40;9.63;;;;;;;-0.33;71.80;97519.56;5302577;27;20114;-85
2024/01/14 03:49:59;;;;;;;31.55;9.95;;;;;;;-0.02;70.99;97511.69;5301778;27;20737;-85
2024/01/14 03:52:27;;;;;;;27.58;10.18;;;;;;;-0.01;70.66;97515.91;5302195;27;20113;-84
2024/01/14 03:54:56;;;;;;;30.55;10.43;;;;;;;0.01;70.17;97514.22;5302322;27;20045;-84
2024/01/14 03:57:24;;;;;;;30.90;10.82;;;;;;;-0.11;70.37;97511.78;5301542;27;20080;-85
2024/01/14 03:59:51;;;;;;;29.63;10.40;;;;;;;-0.09;70.03;97520.25;5302304;27;20129;-85
2024/01/14 04:02:19;;;;;;;29.70;10.65;;;;;;;-0.44;70.74;97518.81;5301792;27;20312;-85
2024/01/14 04:04:47;;;;;;;29.92;9.15;;;;;;;-0.28;70.43;97511.09;5301982;27;20088;-85
2024/01/14 04:07:15;;;;;;;31.77;9.77;;;;;;;-0.34;70.32;97514.53;5302035;27;20057;-84
2024/01/14 04:09:45;;;;;;;27.13;9.80;;;;;;;0.35;67.58;97513.88;5302187;27;20065;-85
2024/01/14 04:12:13;;;;;;;27.85;10.32;;;;;;;-0.08;69.42;97506.72;5301826;27;20057;-85
2024/01/14 04:14:41;;;;;;;28.62;10.23;;;;;;;-0.60;70.62;97497.84;5302345;27;20107;-84
2024/01/14 04:17:08;;;;;;;27.35;10.65;;;;;;;-0.82;72.54;97498.84;5301756;27;20073;-84
2024/01/14 04:19:37;;;;;;;29.52;10.10;;;;;;;-0.47;71.75;97495.19;5301804;27;20057;-84
2024/01/14 04:22:04;;;;;;;31.77;11.15;;;;;;;-0.04;69.04;97513.41;5286740;27;412445;-84
2024/01/14 04:24:33;;;;;;;29.08;9.93;;;;;;;-0.55;70.25;97507.91;5301655;27;20591;-84
2024/01/14 04:27:04;;;;;;;28.00;9.82;;;;;;;-0.73;70.43;97503.00;5302128;27;20128;-84
2024/01/14 04:29:33;;;;;;;29.10;9.43;;;;;;;0.13;67.65;97500.59;5301814;27;20092;-84
2024/01/14 04:32:02;;;;;;;27.90;9.93;;;;;;;-0.28;68.96;97495.91;5300167;27;20065;-84
2024/01/14 04:34:32;;;;;;;27.95;8.98;;;;;;;-0.37;69.13;97495.13;5302279;27;20072;-84
2024/01/14 04:37:01;;;;;;;26.37;9.90;;;;;;;-0.39;69.59;97501.91;5302180;27;20058;-85
2024/01/14 04:39:31;;;;;;;29.23;10.85;;;;;;;-0.40;70.37;97492.63;5301431;27;20107;-85
2024/01/14 04:42:01;;;;;;;29.58;9.18;;;;;;;-0.58;70.17;97492.75;5302118;27;20053;-84
2024/01/14 04:44:29;;;;;;;32.03;10.80;;;;;;;-0.34;69.47;97494.25;5302048;27;20048;-84
2024/01/14 04:46:57;;;;;;;27.15;10.05;;;;;;;-0.21;69.46;97495.84;5301584;27;20400;-84
2024/01/14 04:49:26;;;;;;;33.08;10.82;;;;;;;-0.35;69.79;97490.88;5301767;27;20088;-84
2024/01/14 04:51:55;;;;;;;31.98;10.63;;;;;;;-0.75;71.51;97494.56;5301794;27;20048;-84
2024/01/14 04:54:23;;;;;;;29.52;10.07;;;;;;;-0.89;71.56;97503.09;5301570;27;20067;-84
2024/01/14 04:56:53;;;;;;;28.38;10.48;;;;;;;-1.10;71.69;97498.16;5300668;27;20080;-84
2024/01/14 04:59:21;;;;;;;30.73;10.10;;;;;;;-0.92;70.57;97492.97;5301483;27;20072;-83
2024/01/14 05:01:51;;;;;;;27.42;9.43;;;;;;;-1.54;72.39;97505.94;5301542;27;20056;-84
2024/01/14 05:04:20;;;;;;;29.08;10.25;;;;;;;-1.06;71.22;97509.09;5301972;27;20057;-84
2024/01/14 05:06:50;;;;;;;30.52;10.20;;;;;;;-0.90;70.78;97498.88;5301917;27;20069;-84
2024/01/14 05:09:21;;;;;;;27.05;10.50;;;;;;;-1.07;71.58;97500.66;5302015;27;20400;-84
2024/01/14 05:11:49;;;;;;;28.55;9.63;;;;;;;-1.10;72.75;97494.78;5302062;27;20053;-84
2024/01/14 05:14:19;;;;;;;29.70;10.15;;;;;;;-0.73;71.52;97497.94;5301414;27;20057;-84
2024/01/14 05:16:47;;;;;;;28.92;10.07;;;;;;;-0.97;71.54;97496.38;5301912;27;20111;-85
2024/01/14 05:19:15;;;;;;;30.20;9.73;;;;;;;-1.22;72.85;97500.75;5301713;27;20061;-84
2024/01/14 05:21:44;;;;;;;30.12;10.20;;;;;;;-1.02;72.85;97493.06;5300065;27;20049;-84
2024/01/14 05:24:13;;;;;;;27.77;9.05;;;;;;;-0.95;71.55;97490.47;5301645;27;20203;-84
2024/01/14 05:26:41;;;;;;;30.42;10.13;;;;;;;-0.93;71.63;97495.53;5301957;27;20073;-84
2024/01/14 05:29:10;;;;;;;31.58;10.75;;;;;;;-0.78;70.96;97500.47;5301257;27;20081;-84
2024/01/14 05:31:38;;;;;;;28.02;11.00;;;;;;;-0.61;69.98;97498.69;5301710;27;20061;-84
2024/01/14 05:34:06;;;;;;;29.75;10.70;;;;;;;-1.10;71.23;97499.84;5301767;27;20527;-84
2024/01/14 05:36:35;;;;;;;32.25;10.98;;;;;;;-0.96;70.79;97493.87;5301455;27;20062;-84
2024/01/14 05:39:03;;;;;;;31.35;10.70;;;;;;;-1.01;71.00;97495.56;5301647;27;20072;-84
2024/01/14 05:41:31;;;;;;;27.58;9.52;;;;;;;-1.14;71.76;97496.50;5301145;27;20091;-84
2024/01/14 05:43:58;;;;;;;26.83;9.85;;;;;;;-1.65;73.55;97492.50;5301665;27;20076;-84
2024/01/14 05:46:26;;;;;;;31.42;11.32;;;;;;;-1.49;73.70;97494.09;5301324;27;20061;-84
2024/01/14 05:48:53;;;;;;;33.05;11.15;;;;;;;-1.43;72.82;97504.22;5301492;27;20066;-84
2024/01/14 05:51:22;;;;;;;32.28;11.32;;;;;;;-1.41;72.59;97492.38;5301598;27;20362;-84
2024/01/14 05:53:50;;;;;;;29.73;10.57;;;;;;;-1.62;73.45;97492.47;5302615;27;20414;-84
2024/01/14 05:56:27;;;;;;;33.50;11.57;;;;;;;-1.42;73.27;97480.59;5302175;27;20408;-84
2024/01/14 05:58:54;;;;;;;29.33;11.10;;;;;;;-1.42;73.09;97490.72;5302690;27;20100;-84
2024/01/14 06:01:22;;;;;;;32.83;12.00;;;;;;;-1.83;73.61;97499.28;5302460;27;20138;-84
2024/01/14 06:03:50;;;;;;;34.60;11.27;;;;;;;-1.01;71.77;97490.50;5300846;27;20049;-84
2024/01/14 06:06:19;;;;;;;31.95;11.57;;;;;;;-1.12;71.77;97488.88;5302280;27;20065;-84
2024/01/14 06:08:49;;;;;;;28.90;10.23;;;;;;;-1.08;71.05;97483.78;5302834;27;20075;-84
2024/01/14 06:11:18;;;;;;;30.62;11.02;;;;;;;-1.31;71.87;97488.97;5302119;27;20044;-84
2024/01/14 06:13:46;;;;;;;31.00;11.48;;;;;;;-1.50;72.59;97482.31;5301133;27;20124;-84
2024/01/14 06:16:15;;;;;;;33.40;11.20;;;;;;;-1.08;71.82;97498.97;5302303;27;20120;-84
2024/01/14 06:18:43;;;;;;;31.50;10.68;;;;;;;-1.09;71.24;97493.94;5302085;27;20091;-83
2024/01/14 06:21:11;;;;;;;32.80;11.35;;;;;;;-1.23;72.22;97494.84;5302603;27;20049;-84
2024/01/14 06:23:40;;;;;;;37.05;12.05;;;;;;;-1.49;72.52;97489.91;5302148;27;20049;-84
2024/01/14 06:26:14;;;;;;;33.58;11.57;;;;;;;-1.86;73.14;97488.34;5302302;27;20076;-84
2024/01/14 06:28:45;;;;;;;37.08;13.13;;;;;;;-2.13;75.01;97486.69;5302502;27;20060;-84
2024/01/14 06:31:17;;;;;;;36.72;11.95;;;;;;;-2.16;76.20;97482.50;5302251;27;20059;-84
2024/01/14 06:33:45;;;;;;;38.75;11.55;;;;;;;-2.29;77.54;97485.91;5302459;27;20067;-84
2024/01/14 06:36:14;;;;;;;37.00;12.88;;;;;;;-1.62;74.76;97482.34;5302393;27;20375;-84
2024/01/14 06:38:42;;;;;;;30.77;11.40;;;;;;;-1.48;73.78;97501.72;5300707;27;20057;-84
2024/01/14 06:41:16;;;;;;;32.83;12.40;;;;;;;-1.75;74.99;97510.22;5302768;27;20050;-84
2024/01/14 06:43:46;;;;;;;35.08;11.77;;;;;;;-2.23;77.90;97492.59;5302421;27;20140;-85
2024/01/14 06:46:15;;;;;;;31.20;11.27;;;;;;;-2.06;78.36;97499.34;5300462;27;20412;-84
2024/01/14 06:48:43;;;;;;;28.98;10.38;;;;;;;-1.70;78.78;97502.63;5301390;27;20077;-85
2024/01/14 06:51:12;;;;;;;36.22;11.50;;;;;;;-1.58;78.19;97507.66;5301508;27;20108;-84
2024/01/14 06:53:39;;;;;;;31.20;12.10;;;;;;;-1.53;77.81;97505.94;5302097;27;20312;-84
2024/01/14 06:56:09;;;;;;;31.12;10.18;;;;;;;-1.55;78.11;97502.56;5302254;27;20120;-84
2024/01/14 06:58:38;;;;;;;33.13;10.35;;;;;;;-1.46;77.65;97497.47;5300420;27;20068;-84
2024/01/14 07:01:06;;;;;;;33.40;12.10;;;;;;;-1.15;76.47;97502.41;5302896;27;20113;-84
2024/01/14 07:03:39;;;;;;;35.88;11.05;;;;;;;-1.36;77.36;97498.28;5301916;27;20048;-85
2024/01/14 07:06:08;;;;;;;31.20;10.68;;;;;;;-1.55;77.33;97500.03;5301946;27;20049;-85
2024/01/14 07:08:39;;;;;;;35.08;11.35;;;;;;;-1.17;77.74;97499.88;5301181;27;20064;-84
2024/01/14 07:11:07;;;;;;;26.45;9.18;;;;;;;-0.95;76.29;97494.72;5302677;27;20110;-84
2024/01/14 07:13:35;;;;;;;33.13;10.30;;;;;;;-0.92;76.26;97499.75;5301892;27;20059;-84
2024/01/14 07:16:04;;;;;;;28.17;9.70;;;;;;;-0.62;75.00;97498.69;5302046;27;20075;-85
2024/01/14 07:18:31;;;;;;;28.75;9.38;;;;;;;-0.48;74.69;97496.91;5302098;27;20447;-84
2024/01/14 07:20:59;;;;;;;29.52;10.60;;;;;;;-0.23;73.43;97502.59;5300678;27;20110;-84
2024/01/14 07:23:28;;;;;;;29.35;10.23;;;;;;;0.08;72.10;97504.84;5302590;27;20105;-85
2024/01/14 07:26:15;;;;;;;30.58;11.02;;;;;;;0.08;72.38;97499.78;5302538;27;20071;-84
2024/01/14 07:28:44;;;;;;;29.17;10.25;;;;;;;0.44;71.59;97493.47;5302031;27;20419;-84
2024/01/14 07:31:16;;;;;;;26.58;9.70;;;;;;;0.81;69.78;97498.94;5302254;27;20057;-84
2024/01/14 07:33:44;;;;;;;29.80;9.88;;;;;;;1.34;68.11;97503.28;5302078;27;20073;-84
2024/01/14 07:36:13;;;;;;;24.25;9.32;;;;;;;1.99;65.25;97509.00;5302174;27;20057;-85
2024/01/14 07:38:40;;;;;;;23.45;9.00;;;;;;;2.26;63.86;97505.16;5302134;27;20066;-85
2024/01/14 07:41:12;;;;;;;23.75;9.32;;;;;;;3.07;59.87;97505.22;5301914;27;20072;-85
2024/01/14 07:43:41;;;;;;;25.75;10.00;;;;;;;3.99;57.63;97489.44;5301292;27;20060;-85
2024/01/14 07:46:08;;;;;;;27.02;9.45;;;;;;;5.00;54.41;97501.16;5302071;27;20069;-85
2024/01/14 07:48:38;;;;;;;26.10;10.13;;;;;;;5.49;51.65;97503.94;5300433;27;20057;-84
2024/01/14 07:51:06;;;;;;;24.42;9.90;;;;;;;5.12;50.15;97495.72;5302298;27;20053;-85
2024/01/14 07:53:35;;;;;;;25.25;10.45;;;;;;;4.51;51.54;97493.19;5302655;27;20064;-85
2024/01/14 07:56:03;;;;;;;26.95;10.68;;;;;;;3.94;53.34;97491.28;5301693;27;20067;-85
2024/01/14 07:58:32;;;;;;;28.33;10.32;;;;;;;3.63;54.27;97482.72;5300752;27;20069;-85
2024/01/14 08:01:00;;;;;;;27.13;10.65;;;;;;;4.16;54.00;97498.41;5302100;27;20103;-85
2024/01/14 08:03:30;;;;;;;24.77;9.25;;;;;;;4.17;53.78;97495.81;5302486;27;20060;-84
2024/01/14 08:05:59;;;;;;;24.83;9.55;;;;;;;4.34;52.41;97500.44;5302448;27;20065;-85
2024/01/14 08:08:27;;;;;;;26.27;10.10;;;;;;;5.12;51.00;97500.84;5302629;27;20118;-85
2024/01/14 08:10:54;;;;;;;23.77;9.60;;;;;;;5.56;49.26;97489.22;5302726;27;20059;-85
2024/01/14 08:13:22;;;;;;;29.95;10.95;;;;;;;5.91;48.17;97500.91;5304232;27;20106;-84
2024/01/14 08:15:51;;;;;;;25.70;10.50;;;;;;;6.08;48.81;97497.81;5303407;27;20107;-84
2024/01/14 08:18:29;;;;;;;26.62;10.80;;;;;;;6.49;48.25;97505.81;5303334;27;20087;-84
2024/01/14 08:20:58;;;;;;;29.48;13.10;;;;;;;6.20;48.96;97499.13;5304208;27;20057;-85
2024/01/14 08:23:34;;;;;;;24.85;9.93;;;;;;;6.53;48.10;97492.00;5305592;27;20025;-84
2024/01/14 08:26:04;;;;;;;26.52;10.82;;;;;;;6.36;48.64;97485.72;5306571;27;20065;-84
2024/01/14 08:28:34;;;;;;;24.27;9.63;;;;;;;6.28;49.04;97487.72;5306232;27;20099;-85
2024/01/14 08:31:02;;;;;;;26.33;9.55;;;;;;;5.87;49.53;97483.97;5304675;27;20048;-84
2024/01/14 08:33:31;;;;;;;27.67;10.73;;;;;;;5.57;50.25;97480.66;5306856;27;20045;-84
2024/01/14 08:35:59;;;;;;;26.02;10.80;;;;;;;5.07;51.49;97480.50;5308444;27;20061;-84
2024/01/14 08:38:28;;;;;;;26.33;10.27;;;;;;;4.98;52.29;97490.16;5308061;27;20071;-84
2024/01/14 08:40:55;;;;;;;24.75;9.75;;;;;;;5.02;52.66;97486.63;5308007;27;20044;-84
2024/01/14 08:43:23;;;;;;;24.12;9.63;;;;;;;5.11;53.61;97494.03;5308672;27;20048;-84
2024/01/14 08:45:52;;;;;;;28.67;11.52;;;;;;;4.60;55.00;97480.16;5308416;27;20025;-84
2024/01/14 08:48:22;;;;;;;26.58;10.52;;;;;;;5.06;55.24;97501.00;5310884;27;20073;-84
2024/01/14 08:50:52;;;;;;;28.08;11.65;;;;;;;4.93;55.47;97497.97;5310125;27;20032;-84
2024/01/14 08:53:19;;;;;;;31.75;11.88;;;;;;;4.49;57.46;97496.66;5310921;27;20072;-84
2024/01/14 08:55:47;;;;;;;27.45;11.73;;;;;;;4.65;57.08;97487.69;5309881;27;20041;-83
2024/01/14 08:58:16;;;;;;;31.60;12.25;;;;;;;4.14;58.47;97495.84;5309357;27;20025;-84
2024/01/14 09:00:44;;;;;;;26.80;10.95;;;;;;;3.99;58.71;97492.00;5309379;27;20103;-84
2024/01/14 09:03:12;;;;;;;30.92;11.50;;;;;;;3.85;59.18;97498.34;5310173;27;20044;-84
2024/01/14 09:05:40;;;;;;;29.17;12.10;;;;;;;4.01;59.43;97500.44;5310406;27;20053;-84
2024/01/14 09:08:09;;;;;;;32.17;12.05;;;;;;;4.09;58.74;97491.78;5312878;27;20029;-84
2024/01/14 09:10:37;;;;;;;30.77;11.70;;;;;;;4.39;58.04;97500.34;5313795;27;20791;-84
2024/01/14 09:13:05;;;;;;;30.50;12.98;;;;;;;4.15;58.41;97491.59;5314426;27;20021;-84
2024/01/14 09:15:34;;;;;;;34.75;12.23;;;;;;;3.87;60.10;97489.75;5313008;27;20097;-83
2024/01/14 09:18:03;;;;;;;32.17;12.93;;;;;;;3.84;60.30;97489.00;5313973;27;20069;-84
2024/01/14 09:20:32;;;;;;;34.67;12.57;;;;;;;3.59;61.19;97481.94;5312164;27;20049;-84
2024/01/14 09:22:59;;;;;;;31.55;11.93;;;;;;;3.77;61.27;97491.69;5313934;27;20029;-84
2024/01/14 09:25:28;;;;;;;31.10;13.23;;;;;;;4.05;61.08;97486.75;5316001;27;20025;-83
2024/01/14 09:27:57;;;;;;;30.67;12.15;;;;;;;4.36;60.08;97485.94;5314860;27;20033;-84
2024/01/14 09:30:25;;;;;;;31.55;12.30;;;;;;;4.41;60.14;97481.53;5315387;27;20040;-84
2024/01/14 09:32:58;;;;;;;29.33;11.90;;;;;;;4.20;60.24;97495.72;5314610;27;20021;-80
2024/01/14 09:35:28;;;;;;;31.27;13.02;;;;;;;4.02;60.31;97480.88;5314664;27;20072;-84
2024/01/14 09:37:56;;;;;;;33.00;12.55;;;;;;;4.53;58.50;97490.56;5312307;27;20021;-84
2024/01/14 09:40:24;;;;;;;29.23;12.18;;;;;;;4.49;59.84;97482.16;5314546;27;20103;-83
2024/01/14 09:42:52;;;;;;;32.35;13.32;;;;;;;4.88;57.72;97484.47;5316412;27;20082;-84
2024/01/14 09:45:23;;;;;;;33.13;14.45;;;;;;;4.86;57.74;97476.00;5317379;27;20432;-84
2024/01/14 09:48:04;;;;;;;36.28;15.05;;;;;;;5.14;57.89;97478.59;5318406;27;20029;-84
2024/01/14 09:50:34;;;;;;;34.97;15.20;;;;;;;5.44;56.94;97484.50;5319118;27;20069;-84
2024/01/14 09:53:09;;;;;;;40.78;17.35;;;;;;;5.31;56.34;97478.91;5320175;27;20025;-84
2024/01/14 09:55:38;;;;;;;39.78;17.05;;;;;;;5.22;57.08;97468.97;5319765;27;20050;-83
2024/01/14 09:58:08;;;;;;;37.58;16.33;;;;;;;5.68;56.90;97470.09;5320149;27;20052;-84
2024/01/14 10:00:38;;;;;;;33.10;12.88;;;;;;;6.28;54.99;97458.72;5318567;27;20815;-84
2024/01/14 10:03:08;;;;;;;27.55;12.90;;;;;;;5.78;54.17;97462.06;5318679;27;20059;-84
2024/01/14 10:05:37;;;;;;;30.52;13.02;;;;;;;5.56;54.88;97452.56;5316142;27;20096;-84
2024/01/14 10:08:06;;;;;;;29.58;12.52;;;;;;;5.28;56.35;97447.47;5316657;27;20119;-81
2024/01/14 10:10:34;;;;;;;29.52;12.35;;;;;;;5.22;56.65;97451.06;5319152;27;20031;-84
2024/01/14 10:13:03;;;;;;;31.62;13.10;;;;;;;5.76;56.02;97448.47;5319468;27;20058;-84
2024/01/14 10:15:32;;;;;;;30.80;12.90;;;;;;;5.63;54.98;97449.75;5314925;27;20066;-84
2024/01/14 10:18:17;;;;;;;29.87;13.23;;;;;;;5.57;55.08;97451.69;5317312;27;20029;-84
2024/01/14 10:20:45;;;;;;;30.92;13.20;;;;;;;5.32;55.36;97452.47;5317754;27;20053;-84
2024/01/14 10:23:12;;;;;;;30.75;12.60;;;;;;;5.58;54.59;97433.72;5317332;27;20048;-84
2024/01/14 10:25:40;;;;;;;27.62;11.23;;;;;;;5.56;53.96;97444.88;5318880;27;20049;-84
2024/01/14 10:28:09;;;;;;;28.77;10.98;;;;;;;6.11;52.25;97448.19;5319281;27;20026;-84
2024/01/14 10:30:38;;;;;;;30.05;11.60;;;;;;;6.15;50.23;97442.06;5318940;27;20040;-84
2024/01/14 10:33:09;;;;;;;28.25;12.63;;;;;;;5.94;51.02;97439.34;5318370;27;20106;-84
2024/01/14 10:35:54;;;;;;;27.30;11.80;;;;;;;5.87;50.96;97432.75;5319723;27;20037;-84
2024/01/14 10:38:23;;;;;;;29.70;11.02;;;;;;;6.43;49.67;97434.25;5319257;27;20029;-84
2024/01/14 10:40:52;;;;;;;28.98;10.95;;;;;;;6.76;48.00;97421.94;5318495;27;20071;-84
2024/01/14 10:43:24;;;;;;;28.08;11.45;;;;;;;6.90;48.24;97427.38;5318159;27;20021;-84
2024/01/14 10:45:52;;;;;;;26.92;10.80;;;;;;;6.38;48.98;97439.56;5315576;27;20032;-85
2024/01/14 10:48:27;;;;;;;28.60;11.50;;;;;;;5.86;49.59;97425.13;5314000;27;20724;-85
2024/01/14 10:51:01;;;;;;;28.48;12.55;;;;;;;5.76;50.64;97433.13;5316257;27;20065;-84
2024/01/14 10:54:06;;;;;;;25.15;11.07;;;;;;;6.27;50.69;97439.94;5315068;27;20043;-85
2024/01/14 10:56:39;;;;;;;29.02;11.48;;;;;;;5.97;50.15;97441.84;5313834;27;20025;-85
2024/01/14 10:59:10;;;;;;;27.58;11.82;;;;;;;5.74;50.57;97436.59;5313084;27;20068;-85
2024/01/14 11:01:47;;;;;;;25.40;10.57;;;;;;;5.62;51.10;97440.41;5312004;27;20073;-84
2024/01/14 11:04:18;;;;;;;28.35;11.68;;;;;;;5.62;51.08;97424.19;5312324;27;20039;-84
2024/01/14 11:06:46;;;;;;;29.45;12.55;;;;;;;5.23;51.63;97417.78;5315284;27;20049;-85
2024/01/14 11:09:14;;;;;;;29.83;12.30;;;;;;;5.69;51.69;97405.22;5316888;27;20060;-85
2024/01/14 11:11:49;;;;;;;28.38;11.27;;;;;;;5.83;51.87;97410.69;5318210;27;20059;-85
2024/01/14 11:14:39;;;;;;;26.60;11.70;;;;;;;6.11;50.43;97402.09;5318892;27;20035;-84
2024/01/14 11:17:18;;;;;;;26.83;10.75;;;;;;;6.14;50.42;97394.31;5318077;27;20044;-85
2024/01/14 11:19:48;;;;;;;31.00;12.82;;;;;;;5.93;51.23;97394.16;5317989;27;20025;-85
2024/01/14 11:22:22;;;;;;;26.90;11.80;;;;;;;6.18;50.86;97396.72;5317189;27;20049;-85
2024/01/14 11:25:03;;;;;;;26.55;11.52;;;;;;;5.88;50.67;97390.91;5317064;27;20061;-85
2024/01/14 11:27:33;;;;;;;27.40;10.90;;;;;;;6.21;50.00;97386.34;5315464;27;20032;-85
2024/01/14 11:30:02;;;;;;;26.45;11.20;;;;;;;6.40;49.50;97378.84;5315728;27;20085;-85
2024/01/14 11:32:30;;;;;;;23.38;10.43;;;;;;;6.50;49.73;97369.09;5316199;27;20046;-82
2024/01/14 11:35:02;;;;;;;25.08;9.90;;;;;;;6.66;48.66;97363.31;5317629;27;20040;-83